Time;durP1;ratioP1;P1;durP2;ratioP2;P2;SDS_P1;SDS_P2;PMS_P1;PMS_P2;Temp;Humidity;BMP_temperature;BMP_pressure;BME280_temperature;BME280_humidity;BME280_pressure;Samples;Min_cycle;Max_cycle;Signal;HPM_P1;HPM_P2
2023/08/22 00:02:04;;;;;;;14.65;8.65;;;18.50;99.90;;;;;;5023146;28;20045;-55
2023/08/22 00:04:30;;;;;;;13.40;7.78;;;18.60;99.90;;;;;;5008804;28;20641;-56
2023/08/22 00:06:55;;;;;;;19.73;8.15;;;18.40;99.90;;;;;;5011050;28;20121;-55
2023/08/22 00:09:21;;;;;;;17.40;7.75;;;18.30;99.90;;;;;;5003166;28;20030;-55
2023/08/22 00:11:46;;;;;;;12.35;7.72;;;18.30;99.90;;;;;;5007870;28;20069;-56
2023/08/22 00:14:12;;;;;;;14.77;7.45;;;18.30;99.90;;;;;;5008808;28;20049;-56
2023/08/22 00:16:38;;;;;;;12.27;7.10;;;18.20;99.90;;;;;;5025054;28;20044;-56
2023/08/22 00:19:03;;;;;;;15.40;8.20;;;18.10;99.90;;;;;;5032750;28;20037;-55
2023/08/22 00:21:30;;;;;;;14.85;7.80;;;18.10;99.90;;;;;;5016157;28;20470;-56
2023/08/22 00:23:56;;;;;;;12.38;7.68;;;18.30;99.90;;;;;;5002141;28;20108;-55
2023/08/22 00:26:22;;;;;;;15.60;8.15;;;18.20;99.90;;;;;;4996701;28;20538;-54
2023/08/22 00:28:48;;;;;;;14.10;7.75;;;18.30;99.90;;;;;;4999395;28;20030;-55
2023/08/22 00:31:14;;;;;;;13.40;7.82;;;18.20;99.90;;;;;;5010590;28;20497;-55
2023/08/22 00:33:39;;;;;;;14.05;7.90;;;18.30;99.90;;;;;;5001267;28;20069;-53
2023/08/22 00:36:05;;;;;;;13.50;8.10;;;18.30;99.90;;;;;;5023337;28;20041;-55
2023/08/22 00:38:30;;;;;;;14.43;8.30;;;18.10;99.90;;;;;;5027411;28;20184;-54
2023/08/22 00:40:57;;;;;;;13.82;7.93;;;18.00;99.90;;;;;;5025926;28;20144;-54
2023/08/22 00:43:25;;;;;;;13.25;7.50;;;18.00;99.90;;;;;;5012191;28;20450;-54
2023/08/22 00:45:51;;;;;;;16.27;8.07;;;18.00;99.90;;;;;;5022662;28;20040;-55
2023/08/22 00:48:17;;;;;;;13.88;7.95;;;18.00;99.90;;;;;;5024628;28;20049;-59
2023/08/22 00:50:42;;;;;;;15.23;8.02;;;17.90;99.90;;;;;;5001445;28;20054;-55
2023/08/22 00:53:08;;;;;;;14.30;7.07;;;18.00;99.90;;;;;;4997394;28;20049;-54
2023/08/22 00:55:36;;;;;;;10.82;7.43;;;17.90;99.90;;;;;;5027394;28;20064;-55
2023/08/22 00:58:01;;;;;;;15.98;7.68;;;17.80;99.90;;;;;;5006873;28;20026;-53
2023/08/22 01:00:27;;;;;;;17.13;7.80;;;17.80;99.90;;;;;;5020250;28;20045;-55
2023/08/22 01:02:53;;;;;;;12.85;7.50;;;18.00;99.90;;;;;;4997971;28;20112;-52
2023/08/22 01:05:19;;;;;;;16.23;7.63;;;17.80;99.90;;;;;;5008845;28;20384;-54
2023/08/22 01:08:01;;;;;;;15.57;9.25;;;17.70;99.90;;;;;;5007663;28;20037;-56
2023/08/22 01:10:35;;;;;;;16.63;7.97;;;17.70;99.90;;;;;;5018858;28;20041;-55
2023/08/22 01:13:14;;;;;;;19.85;8.10;;;17.80;99.90;;;;;;5001745;28;20034;-55
2023/08/22 01:15:41;;;;;;;16.95;8.13;;;17.60;99.90;;;;;;5014898;28;20673;-55
2023/08/22 01:18:07;;;;;;;14.20;7.53;;;17.80;99.90;;;;;;5024961;28;20042;-54
2023/08/22 01:20:34;;;;;;;16.50;8.20;;;17.80;99.90;;;;;;5006533;28;20855;-55
2023/08/22 01:23:00;;;;;;;13.00;8.30;;;17.90;99.90;;;;;;5005312;28;20078;-56
2023/08/22 01:25:27;;;;;;;12.75;8.10;;;18.00;99.90;;;;;;5009392;28;20713;-53
2023/08/22 01:28:40;;;;;;;14.68;8.45;;;18.00;99.90;;;;;;5019488;28;20114;-55
2023/08/22 01:31:19;;;;;;;13.25;8.27;;;17.90;99.90;;;;;;4987707;28;20218;-56
2023/08/22 01:34:13;;;;;;;13.98;8.32;;;17.90;99.90;;;;;;5011908;28;20045;-55
2023/08/22 01:36:38;;;;;;;17.95;8.32;;;17.80;99.90;;;;;;5000449;28;20227;-56
2023/08/22 01:39:07;;;;;;;16.50;8.00;;;17.70;99.90;;;;;;5000491;28;20041;-56
2023/08/22 01:41:33;;;;;;;10.07;7.45;;;17.70;99.90;;;;;;5015616;28;20041;-55
2023/08/22 01:44:00;;;;;;;14.52;7.13;;;17.70;99.90;;;;;;5000593;28;20269;-54
2023/08/22 01:46:25;;;;;;;14.98;7.68;;;17.60;99.90;;;;;;4996403;28;20037;-55
2023/08/22 01:48:51;;;;;;;13.85;7.60;;;17.70;99.90;;;;;;4995640;28;20053;-55
2023/08/22 01:51:16;;;;;;;14.85;9.18;;;17.70;99.90;;;;;;5007658;28;20045;-55
2023/08/22 01:53:42;;;;;;;14.48;8.23;;;17.70;99.90;;;;;;5008495;28;20149;-54
2023/08/22 01:56:08;;;;;;;14.45;8.32;;;17.80;99.90;;;;;;5016174;28;20033;-53
2023/08/22 01:58:33;;;;;;;14.18;9.30;;;17.80;99.90;;;;;;5006251;28;20030;-55
2023/08/22 02:00:59;;;;;;;19.40;8.45;;;17.80;99.90;;;;;;5003687;28;20026;-55
2023/08/22 02:03:25;;;;;;;13.73;8.07;;;17.70;99.90;;;;;;5006093;28;20030;-54
2023/08/22 02:05:51;;;;;;;13.18;8.65;;;17.70;99.90;;;;;;5000366;28;20041;-54
2023/08/22 02:08:16;;;;;;;15.88;9.07;;;17.80;99.90;;;;;;5014439;28;20043;-55
2023/08/22 02:10:42;;;;;;;17.17;9.07;;;17.60;99.90;;;;;;5011201;28;20034;-55
2023/08/22 02:13:07;;;;;;;17.00;8.32;;;17.70;99.90;;;;;;5014066;28;20083;-55
2023/08/22 02:15:33;;;;;;;19.48;9.05;;;17.80;99.90;;;;;;5017225;28;20036;-55
2023/08/22 02:17:58;;;;;;;17.23;10.00;;;17.80;99.90;;;;;;5001469;28;20129;-54
2023/08/22 02:20:25;;;;;;;20.00;9.95;;;17.80;99.90;;;;;;5002624;28;20030;-56
2023/08/22 02:22:50;;;;;;;14.52;9.50;;;17.80;99.90;;;;;;5005578;28;20034;-54
2023/08/22 02:25:16;;;;;;;19.38;9.68;;;17.70;99.90;;;;;;5004760;28;20037;-54
2023/08/22 02:27:41;;;;;;;17.65;10.23;;;17.70;99.90;;;;;;4999505;28;20041;-52
2023/08/22 02:30:08;;;;;;;14.95;9.77;;;17.70;99.90;;;;;;5000590;28;20476;-54
2023/08/22 02:32:33;;;;;;;16.38;10.00;;;17.70;99.90;;;;;;5005067;28;20042;-56
2023/08/22 02:34:59;;;;;;;14.95;10.07;;;17.70;99.90;;;;;;5006615;28;20050;-55
2023/08/22 02:37:25;;;;;;;19.40;10.13;;;17.60;99.90;;;;;;5004066;28;20038;-55
2023/08/22 02:39:50;;;;;;;16.73;9.55;;;17.60;99.90;;;;;;5004636;28;20042;-54
2023/08/22 02:42:16;;;;;;;14.57;9.43;;;17.50;99.90;;;;;;5004351;28;20096;-53
2023/08/22 02:44:41;;;;;;;15.43;8.50;;;17.50;99.90;;;;;;5005063;28;20398;-55
2023/08/22 02:47:07;;;;;;;23.73;9.32;;;17.60;99.90;;;;;;5001830;28;20414;-55
2023/08/22 02:49:32;;;;;;;20.38;8.75;;;17.60;99.90;;;;;;5009803;28;20133;-55
2023/08/22 02:51:58;;;;;;;14.65;8.75;;;17.40;99.90;;;;;;5003714;28;20041;-54
2023/08/22 02:54:24;;;;;;;16.65;9.02;;;17.50;99.90;;;;;;5002424;28;20038;-56
2023/08/22 02:56:49;;;;;;;16.50;9.23;;;17.50;99.90;;;;;;5006741;28;20037;-56
2023/08/22 02:59:16;;;;;;;18.38;8.57;;;17.40;99.90;;;;;;5009336;28;20057;-55
2023/08/22 03:01:42;;;;;;;14.60;8.63;;;17.40;99.90;;;;;;5017980;28;20029;-56
2023/08/22 03:04:07;;;;;;;16.98;8.77;;;17.50;99.90;;;;;;5003170;28;20092;-56
2023/08/22 03:06:33;;;;;;;16.73;9.10;;;17.40;99.90;;;;;;5007606;28;20049;-56
2023/08/22 03:08:59;;;;;;;16.70;8.98;;;17.40;99.90;;;;;;5006815;28;20033;-54
2023/08/22 03:11:24;;;;;;;15.48;9.10;;;17.40;99.90;;;;;;5003356;28;20033;-56
2023/08/22 03:13:50;;;;;;;16.23;9.15;;;17.40;99.90;;;;;;5004716;28;20133;-56
2023/08/22 03:16:15;;;;;;;16.55;9.88;;;17.40;99.90;;;;;;5009399;28;20128;-55
2023/08/22 03:18:42;;;;;;;16.13;9.57;;;17.30;99.90;;;;;;5017789;28;20077;-55
2023/08/22 03:21:08;;;;;;;22.13;10.88;;;17.20;99.90;;;;;;5001601;28;20541;-55
2023/08/22 03:23:33;;;;;;;14.02;9.50;;;17.30;99.90;;;;;;5012356;28;20128;-55
2023/08/22 03:26:00;;;;;;;16.50;10.23;;;17.30;99.90;;;;;;5012853;28;20041;-55
2023/08/22 03:28:26;;;;;;;15.65;9.73;;;17.20;99.90;;;;;;5006881;28;20041;-56
2023/08/22 03:31:02;;;;;;;13.50;8.40;;;17.10;99.90;;;;;;5008635;28;20041;-56
2023/08/22 03:33:30;;;;;;;15.35;8.98;;;17.00;99.90;;;;;;5019012;28;20041;-56
2023/08/22 03:35:56;;;;;;;20.15;9.82;;;16.90;99.90;;;;;;5014521;28;20045;-55
2023/08/22 03:38:23;;;;;;;15.00;9.07;;;17.00;99.90;;;;;;5002819;28;20371;-54
2023/08/22 03:40:48;;;;;;;15.45;9.57;;;17.10;99.90;;;;;;5012822;28;20026;-56
2023/08/22 03:43:18;;;;;;;17.83;10.05;;;17.10;99.90;;;;;;5004778;28;20032;-54
2023/08/22 03:45:44;;;;;;;14.25;9.15;;;17.20;99.90;;;;;;5018211;28;20034;-56
2023/08/22 03:48:10;;;;;;;17.75;9.55;;;17.30;99.90;;;;;;4998592;28;20113;-56
2023/08/22 03:50:39;;;;;;;16.65;9.32;;;17.00;99.90;;;;;;5012719;28;20430;-56
2023/08/22 03:53:05;;;;;;;13.75;8.68;;;17.10;99.90;;;;;;5000679;28;20029;-56
2023/08/22 03:55:31;;;;;;;14.60;8.15;;;17.10;99.90;;;;;;5015355;28;20363;-55
2023/08/22 03:57:59;;;;;;;11.68;7.55;;;17.10;99.90;;;;;;5006302;28;20026;-56
2023/08/22 04:00:25;;;;;;;17.13;7.20;;;16.90;99.90;;;;;;5004710;28;20056;-55
2023/08/22 04:02:58;;;;;;;15.73;8.98;;;16.80;99.90;;;;;;5011379;28;20030;-55
2023/08/22 04:05:25;;;;;;;14.48;8.88;;;16.80;99.90;;;;;;5002702;28;20046;-55
2023/08/22 04:07:51;;;;;;;18.65;10.10;;;16.90;99.90;;;;;;5016125;28;20497;-56
2023/08/22 04:10:18;;;;;;;22.55;10.38;;;16.80;99.90;;;;;;5012488;28;20041;-56
2023/08/22 04:12:44;;;;;;;15.35;10.07;;;17.00;99.90;;;;;;5015306;28;20497;-56
2023/08/22 04:15:10;;;;;;;19.27;9.98;;;17.00;99.90;;;;;;5007437;28;20065;-55
2023/08/22 04:17:38;;;;;;;17.55;9.70;;;17.00;99.90;;;;;;5009725;28;20096;-55
2023/08/22 04:20:04;;;;;;;16.02;10.57;;;16.90;99.90;;;;;;5008132;28;20045;-55
2023/08/22 04:22:30;;;;;;;17.63;10.48;;;17.00;99.90;;;;;;5006718;28;20041;-56
2023/08/22 04:24:56;;;;;;;22.48;10.88;;;17.00;99.90;;;;;;5002405;28;20038;-55
2023/08/22 04:27:22;;;;;;;14.50;10.23;;;17.00;99.90;;;;;;5022222;28;20555;-56
2023/08/22 04:29:48;;;;;;;15.45;9.18;;;17.00;99.90;;;;;;5007628;28;20073;-56
2023/08/22 04:32:13;;;;;;;13.43;9.55;;;17.00;99.90;;;;;;5003177;28;20065;-55
2023/08/22 04:34:39;;;;;;;15.02;9.88;;;16.90;99.90;;;;;;5011110;28;20033;-55
2023/08/22 04:37:04;;;;;;;17.13;9.23;;;16.90;99.90;;;;;;5000219;28;20428;-55
2023/08/22 04:39:30;;;;;;;15.38;9.43;;;16.90;99.90;;;;;;5008173;28;20026;-55
2023/08/22 04:41:55;;;;;;;14.90;9.18;;;16.90;99.90;;;;;;5014986;28;20041;-55
2023/08/22 04:44:21;;;;;;;14.45;9.23;;;16.90;99.90;;;;;;5018455;28;20359;-56
2023/08/22 04:46:47;;;;;;;17.17;9.10;;;16.90;99.90;;;;;;4993341;28;20034;-56
2023/08/22 04:49:12;;;;;;;15.27;9.80;;;17.00;99.90;;;;;;5015063;28;20026;-55
2023/08/22 04:51:38;;;;;;;20.05;9.38;;;17.00;99.90;;;;;;5007029;28;20081;-55
2023/08/22 04:54:03;;;;;;;15.68;9.07;;;16.90;99.90;;;;;;5007213;28;20442;-55
2023/08/22 04:56:29;;;;;;;15.90;9.27;;;16.90;99.90;;;;;;5006555;28;20444;-56
2023/08/22 04:58:55;;;;;;;19.45;9.45;;;16.90;99.90;;;;;;5024527;28;20025;-55
2023/08/22 05:01:20;;;;;;;23.58;9.25;;;16.90;99.90;;;;;;5005602;28;20097;-56
2023/08/22 05:03:46;;;;;;;15.30;8.75;;;17.00;99.90;;;;;;5001290;28;20397;-56
2023/08/22 05:06:12;;;;;;;21.27;9.65;;;16.90;99.90;;;;;;5023101;28;20107;-55
2023/08/22 05:08:38;;;;;;;13.88;9.48;;;16.80;99.90;;;;;;4999324;28;20494;-56
2023/08/22 05:11:03;;;;;;;15.55;8.45;;;16.90;99.90;;;;;;4995290;28;20074;-57
2023/08/22 05:13:29;;;;;;;16.05;9.20;;;16.90;99.90;;;;;;5010205;28;20069;-56
2023/08/22 05:15:55;;;;;;;13.80;8.55;;;16.80;99.90;;;;;;5024199;28;20080;-57
2023/08/22 05:18:20;;;;;;;19.33;10.75;;;16.80;99.90;;;;;;5004084;28;20088;-57
2023/08/22 05:20:49;;;;;;;15.88;10.50;;;17.00;99.90;;;;;;5001936;28;20057;-60
2023/08/22 05:23:15;;;;;;;23.17;10.88;;;17.00;99.90;;;;;;5019314;28;20041;-56
2023/08/22 05:25:41;;;;;;;17.15;10.23;;;17.20;99.90;;;;;;5003475;28;20064;-57
2023/08/22 05:28:08;;;;;;;18.80;10.88;;;17.20;99.90;;;;;;4999021;28;20680;-57
2023/08/22 05:30:36;;;;;;;21.40;12.60;;;17.20;99.90;;;;;;5009328;28;20117;-56
2023/08/22 05:33:02;;;;;;;25.60;12.35;;;17.50;99.90;;;;;;5003021;28;20413;-57
2023/08/22 05:35:28;;;;;;;24.95;12.55;;;17.50;99.90;;;;;;5010398;28;20544;-56
2023/08/22 05:37:53;;;;;;;22.17;12.55;;;17.50;99.90;;;;;;5014084;28;20060;-56
2023/08/22 05:40:19;;;;;;;22.27;13.90;;;17.60;99.90;;;;;;4998455;28;20072;-57
2023/08/22 05:42:45;;;;;;;26.52;14.30;;;17.70;99.90;;;;;;5000663;28;20180;-57
2023/08/22 05:45:10;;;;;;;23.75;13.25;;;17.70;99.90;;;;;;4993146;28;20180;-57
2023/08/22 05:47:36;;;;;;;18.95;12.25;;;17.70;99.90;;;;;;4994914;28;20333;-57
2023/08/22 05:50:03;;;;;;;21.48;12.32;;;17.60;99.90;;;;;;5001575;28;20030;-56
2023/08/22 05:52:30;;;;;;;23.50;12.80;;;17.50;99.90;;;;;;5001299;28;20049;-57
2023/08/22 05:54:55;;;;;;;18.58;12.65;;;17.50;99.90;;;;;;5012885;28;20140;-57
2023/08/22 05:57:22;;;;;;;25.63;16.00;;;17.50;99.90;;;;;;5007945;28;20521;-57
2023/08/22 05:59:49;;;;;;;30.13;15.60;;;17.70;99.90;;;;;;5013259;28;20034;-57
2023/08/22 06:02:15;;;;;;;26.63;14.75;;;18.00;99.90;;;;;;5000340;28;20034;-56
2023/08/22 06:04:40;;;;;;;25.65;14.13;;;17.90;99.90;;;;;;5004443;28;20556;-56
2023/08/22 06:07:06;;;;;;;23.73;13.88;;;17.90;99.90;;;;;;5020191;28;20064;-57
2023/08/22 06:09:32;;;;;;;29.58;16.13;;;18.00;99.90;;;;;;5003235;28;20125;-58
2023/08/22 06:11:57;;;;;;;30.20;15.25;;;18.20;99.90;;;;;;5010722;28;20038;-56
2023/08/22 06:14:23;;;;;;;32.53;16.05;;;18.20;99.90;;;;;;4999420;28;20078;-56
2023/08/22 06:16:49;;;;;;;28.55;15.35;;;18.30;99.90;;;;;;5002598;28;20040;-57
2023/08/22 06:19:14;;;;;;;27.10;14.77;;;18.40;99.90;;;;;;5003117;28;20061;-56
2023/08/22 06:21:40;;;;;;;26.60;16.05;;;18.40;99.90;;;;;;5002861;28;20029;-56
2023/08/22 06:24:06;;;;;;;29.30;15.60;;;18.50;99.90;;;;;;4998898;28;20123;-56
2023/08/22 06:26:31;;;;;;;27.05;15.25;;;18.60;99.90;;;;;;5003336;28;20045;-56
2023/08/22 06:28:58;;;;;;;25.15;15.43;;;18.70;99.90;;;;;;5000433;28;20042;-56
2023/08/22 06:31:23;;;;;;;28.08;16.60;;;18.70;99.90;;;;;;4998109;28;20046;-56
2023/08/22 06:33:49;;;;;;;31.73;16.17;;;18.70;99.90;;;;;;4995379;28;20141;-57
2023/08/22 06:36:15;;;;;;;33.92;17.23;;;18.80;99.90;;;;;;4994664;28;20414;-57
2023/08/22 06:38:40;;;;;;;32.40;18.85;;;18.90;99.90;;;;;;4997372;28;20041;-56
2023/08/22 06:41:07;;;;;;;40.78;20.50;;;19.00;99.90;;;;;;5005138;28;20030;-56
2023/08/22 06:43:33;;;;;;;36.58;19.92;;;19.00;99.90;;;;;;5003012;28;20049;-57
2023/08/22 06:45:59;;;;;;;44.20;21.55;;;19.20;99.90;;;;;;5004432;28;20153;-55
2023/08/22 06:48:26;;;;;;;53.50;23.95;;;19.30;99.90;;;;;;5002442;28;20030;-57
2023/08/22 06:50:52;;;;;;;44.88;22.52;;;19.40;99.90;;;;;;5005655;28;20042;-58
2023/08/22 06:53:19;;;;;;;41.78;22.63;;;19.50;99.90;;;;;;4999206;28;20425;-57
2023/08/22 06:55:47;;;;;;;40.00;22.27;;;19.60;99.90;;;;;;5006922;28;20041;-57
2023/08/22 06:58:13;;;;;;;43.17;22.92;;;19.70;99.90;;;;;;5002446;28;20038;-57
2023/08/22 07:00:39;;;;;;;46.67;23.83;;;19.80;99.90;;;;;;5002530;28;20544;-58
2023/08/22 07:03:05;;;;;;;44.85;22.45;;;20.00;99.90;;;;;;5012926;28;20038;-57
2023/08/22 07:05:33;;;;;;;44.22;23.02;;;20.00;99.90;;;;;;5003421;28;20120;-57
2023/08/22 07:07:58;;;;;;;47.00;23.63;;;20.00;99.90;;;;;;5012027;28;20032;-57
2023/08/22 07:10:24;;;;;;;46.72;23.13;;;20.20;99.90;;;;;;5011969;28;20133;-57
2023/08/22 07:12:49;;;;;;;44.00;22.88;;;20.30;99.90;;;;;;5001327;28;20037;-56
2023/08/22 07:15:15;;;;;;;44.08;21.77;;;20.40;99.90;;;;;;4997115;28;20120;-57
2023/08/22 07:17:41;;;;;;;42.20;22.88;;;20.40;99.90;;;;;;5005714;28;20050;-55
2023/08/22 07:20:07;;;;;;;47.33;22.10;;;20.50;99.90;;;;;;5007539;28;20030;-58
2023/08/22 07:22:33;;;;;;;41.20;19.08;;;20.70;99.90;;;;;;5003132;28;20041;-55
2023/08/22 07:24:58;;;;;;;39.92;19.33;;;20.60;99.90;;;;;;5003765;28;20414;-57
2023/08/22 07:27:24;;;;;;;39.85;19.83;;;20.70;99.90;;;;;;5002271;28;20117;-57
2023/08/22 07:29:50;;;;;;;36.63;17.50;;;20.80;99.90;;;;;;5009804;28;20025;-57
2023/08/22 07:32:18;;;;;;;34.00;15.68;;;20.90;99.90;;;;;;5024147;28;20087;-55
2023/08/22 07:34:45;;;;;;;37.75;18.20;;;20.90;99.90;;;;;;5023260;28;20040;-57
2023/08/22 07:37:11;;;;;;;27.98;14.93;;;21.00;99.90;;;;;;5023605;28;20460;-56
2023/08/22 07:39:37;;;;;;;27.05;14.48;;;21.00;99.90;;;;;;5009917;28;20038;-57
2023/08/22 07:42:04;;;;;;;33.95;13.70;;;21.10;99.90;;;;;;4996856;28;20030;-57
2023/08/22 07:44:30;;;;;;;80.93;45.13;;;21.10;99.90;;;;;;5010849;28;21009;-57
2023/08/22 07:46:56;;;;;;;29.60;15.55;;;21.30;99.90;;;;;;5024890;28;20029;-58
2023/08/22 07:49:21;;;;;;;28.10;12.98;;;21.30;99.90;;;;;;5019236;28;20048;-57
2023/08/22 07:51:47;;;;;;;24.80;11.93;;;21.30;99.90;;;;;;5016600;28;20037;-57
2023/08/22 07:54:13;;;;;;;27.20;12.52;;;21.30;99.90;;;;;;5006490;28;20406;-57
2023/08/22 07:56:38;;;;;;;24.60;12.20;;;21.40;99.90;;;;;;5012149;28;20389;-58
2023/08/22 07:59:04;;;;;;;24.98;12.40;;;21.40;99.90;;;;;;5006251;28;20045;-57
2023/08/22 08:01:29;;;;;;;26.08;11.43;;;21.40;99.90;;;;;;5011714;28;20040;-56
2023/08/22 08:03:55;;;;;;;30.92;11.73;;;21.40;99.90;;;;;;5015822;28;20603;-57
2023/08/22 08:06:21;;;;;;;24.23;10.93;;;21.60;99.90;;;;;;5001337;28;20033;-57
2023/08/22 08:08:47;;;;;;;21.40;11.27;;;21.80;99.90;;;;;;5009463;28;20255;-58
2023/08/22 08:11:12;;;;;;;25.17;11.77;;;21.80;99.90;;;;;;5009632;28;20128;-58
2023/08/22 08:13:38;;;;;;;15.43;8.45;;;21.90;99.90;;;;;;5012258;28;20398;-58
2023/08/22 08:16:04;;;;;;;19.38;9.27;;;22.00;99.90;;;;;;5011569;28;20042;-56
2023/08/22 08:18:29;;;;;;;17.48;8.20;;;22.00;99.90;;;;;;5008407;28;20125;-58
2023/08/22 08:20:55;;;;;;;18.00;7.57;;;21.90;99.90;;;;;;5013614;28;20069;-60
2023/08/22 08:23:21;;;;;;;16.95;6.70;;;22.00;99.90;;;;;;5001045;28;20091;-57
2023/08/22 08:25:46;;;;;;;18.42;8.35;;;22.10;99.90;;;;;;5010323;28;20026;-58
2023/08/22 08:28:12;;;;;;;23.02;9.73;;;22.30;99.90;;;;;;5008583;28;20495;-58
2023/08/22 08:30:37;;;;;;;19.85;9.68;;;22.30;99.90;;;;;;5009223;28;20029;-55
2023/08/22 08:33:03;;;;;;;24.17;10.50;;;22.40;99.90;;;;;;5010366;28;20045;-57
2023/08/22 08:35:29;;;;;;;18.85;10.02;;;22.50;99.90;;;;;;5006147;28;20053;-60
2023/08/22 08:37:57;;;;;;;24.63;10.15;;;22.40;99.90;;;;;;5006247;28;20034;-58
2023/08/22 08:40:22;;;;;;;18.30;10.43;;;22.60;99.90;;;;;;5010815;28;20064;-57
2023/08/22 08:42:49;;;;;;;20.90;10.20;;;22.70;99.90;;;;;;5007958;28;20481;-58
2023/08/22 08:45:16;;;;;;;25.13;12.65;;;22.70;99.90;;;;;;5005421;28;20034;-58
2023/08/22 08:47:42;;;;;;;21.58;10.50;;;22.80;99.90;;;;;;5017778;28;20477;-58
2023/08/22 08:50:09;;;;;;;23.58;10.80;;;22.90;99.90;;;;;;5007493;28;20120;-57
2023/08/22 08:52:35;;;;;;;23.45;9.90;;;22.70;99.90;;;;;;5009046;28;20409;-62
2023/08/22 08:55:04;;;;;;;18.75;9.25;;;22.70;99.90;;;;;;5007957;28;20490;-58
2023/08/22 08:57:30;;;;;;;22.70;9.45;;;22.80;99.90;;;;;;5022412;28;20583;-58
2023/08/22 08:59:55;;;;;;;28.30;9.98;;;22.90;99.90;;;;;;5005637;28;20038;-59
2023/08/22 09:02:21;;;;;;;19.92;8.30;;;22.90;99.90;;;;;;5019273;28;20096;-58
2023/08/22 09:04:47;;;;;;;19.30;9.65;;;22.90;99.90;;;;;;5004727;28;20038;-58
2023/08/22 09:07:13;;;;;;;23.95;10.25;;;22.90;99.90;;;;;;5002986;28;20037;-58
2023/08/22 09:09:39;;;;;;;19.65;8.90;;;22.90;99.90;;;;;;5004466;28;20042;-59
2023/08/22 09:12:14;;;;;;;22.70;10.25;;;23.00;99.90;;;;;;5000971;28;20053;-57
2023/08/22 09:14:43;;;;;;;30.58;10.85;;;23.10;99.90;;;;;;5020290;28;20482;-58
2023/08/22 09:17:12;;;;;;;16.73;11.00;;;23.00;99.90;;;;;;5005223;28;20133;-58
2023/08/22 09:19:39;;;;;;;17.23;9.73;;;23.20;99.90;;;;;;5004395;28;20170;-57
2023/08/22 09:22:05;;;;;;;21.75;8.63;;;23.30;99.90;;;;;;4998093;28;20044;-57
2023/08/22 09:24:32;;;;;;;21.65;7.43;;;23.30;99.90;;;;;;5011710;28;20034;-57
2023/08/22 09:27:00;;;;;;;16.15;7.40;;;23.40;99.90;;;;;;5001862;28;20042;-58
2023/08/22 09:29:30;;;;;;;14.95;7.70;;;23.40;99.90;;;;;;5009098;28;20053;-59
2023/08/22 09:32:03;;;;;;;18.35;7.28;;;23.50;99.90;;;;;;5012581;28;20515;-57
2023/08/22 09:34:29;;;;;;;19.42;7.00;;;23.40;99.90;;;;;;5023039;28;20044;-57
2023/08/22 09:36:56;;;;;;;13.40;6.43;;;23.60;99.90;;;;;;5015667;28;20123;-57
2023/08/22 09:39:23;;;;;;;19.55;7.60;;;23.70;99.90;;;;;;5003571;28;20052;-57
2023/08/22 09:41:54;;;;;;;16.83;7.25;;;23.60;99.90;;;;;;5003556;28;20042;-57
2023/08/22 09:44:29;;;;;;;12.93;6.88;;;23.50;99.90;;;;;;5005163;28;20043;-58
2023/08/22 09:46:56;;;;;;;21.35;7.20;;;23.50;99.90;;;;;;5000437;28;20172;-57
2023/08/22 09:49:22;;;;;;;18.23;6.40;;;23.70;99.90;;;;;;5008386;28;20041;-57
2023/08/22 09:51:53;;;;;;;13.52;6.28;;;24.20;99.90;;;;;;5012606;28;20076;-57
2023/08/22 09:54:18;;;;;;;14.02;7.20;;;24.20;99.90;;;;;;5004383;28;20083;-56
2023/08/22 09:56:45;;;;;;;15.40;7.13;;;24.10;99.90;;;;;;5001053;28;20154;-57
2023/08/22 09:59:16;;;;;;;17.60;6.30;;;24.10;99.90;;;;;;5002181;28;20111;-58
2023/08/22 10:01:42;;;;;;;12.40;5.68;;;24.20;99.90;;;;;;5003919;28;20042;-58
2023/08/22 10:04:09;;;;;;;13.25;5.32;;;24.10;99.90;;;;;;5004662;28;20469;-59
2023/08/22 10:06:36;;;;;;;13.52;5.10;;;24.00;99.90;;;;;;5007057;28;20038;-61
2023/08/22 10:09:07;;;;;;;12.70;5.25;;;24.10;99.90;;;;;;5006278;28;20871;-57
2023/08/22 10:11:41;;;;;;;15.75;5.18;;;24.30;99.90;;;;;;5007317;28;20038;-58
2023/08/22 10:14:07;;;;;;;;;;;24.10;99.90;;;;;;5003772;28;20526;-58
2023/08/22 10:16:34;;;;;;;13.05;4.50;;;24.10;99.90;;;;;;5001662;28;20356;-59
2023/08/22 10:19:02;;;;;;;16.77;7.03;;;24.20;99.90;;;;;;5016962;28;20037;-58
2023/08/22 10:21:32;;;;;;;18.15;7.65;;;24.30;99.90;;;;;;5012394;28;20030;-58
2023/08/22 10:23:58;;;;;;;12.57;5.82;;;24.40;99.90;;;;;;5009957;28;20046;-58
2023/08/22 10:26:47;;;;;;;16.85;5.30;;;24.40;99.90;;;;;;5005223;28;20038;-58
2023/08/22 10:29:14;;;;;;;17.95;5.13;;;24.40;99.90;;;;;;5001086;28;20045;-58
2023/08/22 10:32:01;;;;;;;14.10;7.32;;;24.50;99.90;;;;;;5012207;28;20037;-56
2023/08/22 10:34:47;;;;;;;14.38;6.57;;;24.50;99.90;;;;;;5014315;28;20049;-57
2023/08/22 10:37:17;;;;;;;14.73;7.55;;;24.40;99.90;;;;;;5019433;28;20044;-57
2023/08/22 10:39:47;;;;;;;16.83;6.72;;;24.40;99.90;;;;;;5021692;28;20555;-57
2023/08/22 10:42:21;;;;;;;14.48;6.72;;;24.50;99.90;;;;;;5010669;28;20048;-55
2023/08/22 10:44:54;;;;;;;16.65;6.13;;;24.50;99.90;;;;;;5002068;28;20121;-56
2023/08/22 10:47:24;;;;;;;11.23;5.20;;;24.50;99.90;;;;;;5002650;28;20068;-58
2023/08/22 10:49:51;;;;;;;16.02;5.28;;;24.50;99.90;;;;;;5005222;28;20035;-56
2023/08/22 10:52:23;;;;;;;14.05;5.28;;;24.30;99.90;;;;;;5014506;28;20482;-55
2023/08/22 10:55:08;;;;;;;10.25;4.70;;;24.30;99.90;;;;;;4999761;28;20501;-58
2023/08/22 10:57:36;;;;;;;12.40;4.88;;;24.40;99.90;;;;;;5005519;28;20038;-56
2023/08/22 11:00:21;;;;;;;13.40;5.55;;;24.40;99.90;;;;;;5001703;28;20046;-57
2023/08/22 11:02:56;;;;;;;10.77;4.63;;;24.50;99.90;;;;;;5003511;28;20507;-56
2023/08/22 11:05:22;;;;;;;11.85;4.90;;;24.60;99.90;;;;;;5018164;28;20038;-57
2023/08/22 11:07:48;;;;;;;19.13;5.60;;;24.60;99.90;;;;;;5010569;28;20555;-58
2023/08/22 11:10:19;;;;;;;17.52;5.60;;;24.80;99.90;;;;;;5001093;28;20038;-56
2023/08/22 11:12:45;;;;;;;15.43;5.05;;;24.80;99.90;;;;;;5000036;28;20045;-56
2023/08/22 11:15:15;;;;;;;14.30;5.65;;;24.80;99.90;;;;;;4997568;28;20554;-56
2023/08/22 11:17:41;;;;;;;15.05;6.07;;;24.70;99.90;;;;;;5004564;28;20524;-56
2023/08/22 11:20:11;;;;;;;10.93;5.45;;;24.60;99.90;;;;;;5006955;28;20144;-56
2023/08/22 11:22:37;;;;;;;13.18;5.85;;;24.60;99.90;;;;;;5007214;28;20049;-56
2023/08/22 11:25:06;;;;;;;10.98;5.03;;;24.80;99.90;;;;;;5005253;28;20068;-58
2023/08/22 11:27:35;;;;;;;9.98;3.83;;;24.90;99.90;;;;;;5006557;28;20038;-57
2023/08/22 11:30:01;;;;;;;15.13;5.13;;;25.10;99.90;;;;;;5012427;28;20409;-56
2023/08/22 11:32:32;;;;;;;11.60;4.95;;;25.00;99.90;;;;;;5003456;28;20038;-56
2023/08/22 11:35:00;;;;;;;16.67;5.25;;;25.20;99.90;;;;;;5017951;28;20672;-55
2023/08/22 11:37:28;;;;;;;24.02;6.45;;;25.10;99.90;;;;;;5024682;28;20667;-57
2023/08/22 11:39:59;;;;;;;14.00;5.25;;;25.10;99.90;;;;;;5024636;28;20037;-56
2023/08/22 11:42:29;;;;;;;10.95;5.05;;;25.00;99.90;;;;;;5003957;28;20040;-57
2023/08/22 11:45:02;;;;;;;18.52;5.60;;;25.10;99.90;;;;;;5005286;28;20036;-57
2023/08/22 11:47:53;;;;;;;11.88;5.32;;;25.10;99.90;;;;;;5021803;28;20049;-56
2023/08/22 11:50:23;;;;;;;14.07;6.05;;;24.80;99.90;;;;;;5004388;28;20482;-56
2023/08/22 11:52:52;;;;;;;14.68;5.70;;;24.80;99.90;;;;;;5006227;28;20473;-58
2023/08/22 11:55:26;;;;;;;12.82;4.85;;;24.80;99.90;;;;;;5005423;28;20388;-57
2023/08/22 11:58:03;;;;;;;14.75;5.47;;;24.80;99.90;;;;;;5017665;28;20117;-57
2023/08/22 12:00:31;;;;;;;13.02;5.03;;;24.90;99.90;;;;;;5018726;28;20555;-57
2023/08/22 12:02:59;;;;;;;14.23;4.45;;;25.00;99.90;;;;;;5008428;28;20038;-58
2023/08/22 12:05:32;;;;;;;11.10;4.70;;;25.10;99.90;;;;;;5001091;28;20200;-58
2023/08/22 12:07:59;;;;;;;12.73;4.82;;;25.10;99.90;;;;;;5008287;28;20049;-57
2023/08/22 12:10:26;;;;;;;13.13;5.30;;;25.10;99.90;;;;;;5012211;28;20737;-57
2023/08/22 12:12:52;;;;;;;13.45;4.70;;;25.00;99.90;;;;;;5007566;28;20520;-58
2023/08/22 12:15:17;;;;;;;14.27;4.82;;;25.00;99.90;;;;;;5009658;28;20026;-58
2023/08/22 12:17:43;;;;;;;12.13;5.80;;;25.20;99.90;;;;;;5010803;28;20458;-57
2023/08/22 12:20:09;;;;;;;13.73;5.22;;;25.20;99.90;;;;;;5013944;28;20113;-57
2023/08/22 12:22:34;;;;;;;14.25;5.28;;;25.20;99.90;;;;;;5008709;28;20128;-58
2023/08/22 12:25:00;;;;;;;10.88;4.30;;;25.20;99.90;;;;;;5002795;28;20438;-58
2023/08/22 12:27:27;;;;;;;18.92;9.38;;;25.30;99.90;;;;;;5003111;28;20030;-57
2023/08/22 12:29:53;;;;;;;15.77;6.72;;;25.50;99.90;;;;;;5002876;28;20034;-58
2023/08/22 12:32:18;;;;;;;17.98;6.00;;;25.40;99.90;;;;;;5009322;28;20026;-58
2023/08/22 12:34:44;;;;;;;13.35;5.78;;;25.30;99.90;;;;;;5013980;28;20077;-57